createdAt,value
2023-02-05T00:00:52.584Z,0
2023-02-05T00:01:52.626Z,0
2023-02-05T00:02:52.586Z,0
2023-02-05T00:03:52.588Z,0
2023-02-05T00:04:52.577Z,0
2023-02-05T00:05:52.586Z,0
2023-02-05T00:06:52.588Z,0
2023-02-05T00:07:52.601Z,0
2023-02-05T00:08:52.591Z,0
2023-02-05T00:09:52.604Z,0
2023-02-05T00:10:52.587Z,0
2023-02-05T00:11:52.599Z,0
2023-02-05T00:12:52.591Z,0
2023-02-05T00:13:52.585Z,0
2023-02-05T00:14:52.592Z,0
2023-02-05T00:15:52.581Z,0
2023-02-05T00:16:52.739Z,0
2023-02-05T00:17:52.593Z,0
2023-02-05T00:18:52.597Z,0
2023-02-05T00:19:52.584Z,0
2023-02-05T00:20:52.582Z,0
2023-02-05T00:21:52.604Z,0
2023-02-05T00:22:52.602Z,0
2023-02-05T00:23:52.590Z,0
2023-02-05T00:24:52.588Z,0
2023-02-05T00:25:52.580Z,0
2023-02-05T00:26:52.603Z,0
2023-02-05T00:27:52.747Z,0
2023-02-05T00:28:52.602Z,0
2023-02-05T00:29:52.571Z,0
2023-02-05T00:30:52.651Z,0
2023-02-05T00:31:52.670Z,0
2023-02-05T00:32:52.594Z,0
2023-02-05T00:33:52.588Z,0
2023-02-05T00:34:52.593Z,0
2023-02-05T00:35:52.574Z,0
2023-02-05T00:36:52.598Z,0
2023-02-05T00:37:52.588Z,0
2023-02-05T00:38:52.581Z,0
2023-02-05T00:39:52.605Z,0
2023-02-05T00:40:52.596Z,0
2023-02-05T00:41:52.599Z,0
2023-02-05T00:42:52.578Z,0
2023-02-05T00:43:52.577Z,0
2023-02-05T00:44:52.567Z,0
2023-02-05T00:45:52.626Z,0
2023-02-05T00:46:52.592Z,0
2023-02-05T00:47:52.573Z,0
2023-02-05T00:48:52.580Z,0
2023-02-05T00:49:52.582Z,0
2023-02-05T00:50:52.587Z,0
2023-02-05T00:51:52.605Z,0
2023-02-05T00:52:52.598Z,0
2023-02-05T00:53:52.568Z,0
2023-02-05T00:54:52.569Z,0
2023-02-05T00:55:52.601Z,0
2023-02-05T00:56:52.601Z,0
2023-02-05T00:57:52.570Z,0
2023-02-05T00:58:52.584Z,0
2023-02-05T00:59:52.583Z,0
2023-02-05T01:00:52.657Z,0
2023-02-05T01:01:52.593Z,0
2023-02-05T01:02:52.586Z,0
2023-02-05T01:03:52.572Z,0
2023-02-05T01:04:52.574Z,0
2023-02-05T01:05:52.575Z,0
2023-02-05T01:06:52.695Z,0
2023-02-05T01:07:52.597Z,0
2023-02-05T01:08:52.586Z,0
2023-02-05T01:09:52.570Z,0
2023-02-05T01:10:52.589Z,0
2023-02-05T01:11:52.593Z,0
2023-02-05T01:12:52.591Z,0
2023-02-05T01:13:52.576Z,0
2023-02-05T01:14:52.590Z,0
2023-02-05T01:15:52.590Z,0
2023-02-05T01:16:52.611Z,0
2023-02-05T01:17:52.597Z,0
2023-02-05T01:18:52.585Z,0
2023-02-05T01:19:52.594Z,0
2023-02-05T01:20:52.592Z,0
2023-02-05T01:21:52.611Z,0
2023-02-05T01:22:52.609Z,0
2023-02-05T01:23:52.598Z,0
2023-02-05T01:24:52.588Z,0
2023-02-05T01:25:52.590Z,0
2023-02-05T01:26:52.607Z,0
2023-02-05T01:27:52.617Z,0
2023-02-05T01:28:52.597Z,0
2023-02-05T01:29:52.586Z,0
2023-02-05T01:30:52.744Z,0
2023-02-05T01:31:52.777Z,0
2023-02-05T01:32:52.593Z,0
2023-02-05T01:33:52.585Z,0
2023-02-05T01:34:52.600Z,0
2023-02-05T01:35:52.588Z,0
2023-02-05T01:36:52.609Z,0
2023-02-05T01:37:52.615Z,0
2023-02-05T01:38:52.584Z,0
2023-02-05T01:39:52.591Z,0
2023-02-05T01:40:52.593Z,0
2023-02-05T01:41:52.598Z,0
2023-02-05T01:42:52.578Z,0
2023-02-05T01:43:52.586Z,0
2023-02-05T01:44:52.590Z,0
2023-02-05T01:45:52.586Z,0
2023-02-05T01:46:52.604Z,0
2023-02-05T01:47:52.575Z,0
2023-02-05T01:48:52.582Z,0
2023-02-05T01:49:52.594Z,0
2023-02-05T01:50:52.585Z,0
2023-02-05T01:51:52.596Z,0
2023-02-05T01:52:52.598Z,0
2023-02-05T01:53:52.591Z,0
2023-02-05T01:54:52.585Z,0
2023-02-05T01:55:52.571Z,0
2023-02-05T01:56:52.618Z,0
2023-02-05T01:57:52.572Z,0
2023-02-05T01:58:52.578Z,0
2023-02-05T01:59:52.578Z,0
2023-02-05T02:00:52.568Z,0
2023-02-05T02:01:52.644Z,0
2023-02-05T02:02:52.590Z,0
2023-02-05T02:03:52.590Z,0
2023-02-05T02:04:52.681Z,0
2023-02-05T02:05:52.570Z,0
2023-02-05T02:06:52.586Z,0
2023-02-05T02:07:52.588Z,0
2023-02-05T02:08:52.586Z,0
2023-02-05T02:09:52.562Z,0
2023-02-05T02:10:52.569Z,0
2023-02-05T02:11:52.606Z,0
2023-02-05T02:12:52.571Z,0
2023-02-05T02:13:52.563Z,0
2023-02-05T02:14:52.572Z,0
2023-02-05T02:15:52.646Z,0
2023-02-05T02:16:52.592Z,0
2023-02-05T02:17:52.571Z,0
2023-02-05T02:18:52.569Z,0
2023-02-05T02:19:52.599Z,0
2023-02-05T02:20:52.573Z,0
2023-02-05T02:21:52.587Z,0
2023-02-05T02:22:52.596Z,0
2023-02-05T02:23:52.578Z,0
2023-02-05T02:24:52.564Z,0
2023-02-05T02:25:52.571Z,0
2023-02-05T02:26:52.592Z,0
2023-02-05T02:27:52.621Z,0
2023-02-05T02:28:52.568Z,0
2023-02-05T02:29:52.584Z,0
2023-02-05T02:30:52.698Z,0
2023-02-05T02:31:52.628Z,0
2023-02-05T02:32:52.581Z,0
2023-02-05T02:33:52.588Z,0
2023-02-05T02:34:52.589Z,0
2023-02-05T02:35:52.580Z,0
2023-02-05T02:36:52.607Z,0
2023-02-05T02:37:52.595Z,0
2023-02-05T02:38:52.586Z,0
2023-02-05T02:39:52.575Z,0
2023-02-05T02:40:52.581Z,0
2023-02-05T02:41:52.586Z,0
2023-02-05T02:42:52.582Z,0
2023-02-05T02:43:52.578Z,0
2023-02-05T02:44:52.568Z,0
2023-02-05T02:45:52.586Z,0
2023-02-05T02:46:52.611Z,0
2023-02-05T02:47:52.599Z,0
2023-02-05T02:48:52.599Z,0
2023-02-05T02:49:52.588Z,0
2023-02-05T02:50:52.588Z,0
2023-02-05T02:51:52.761Z,0
2023-02-05T02:52:52.604Z,0
2023-02-05T02:53:52.584Z,0
2023-02-05T02:54:52.617Z,0
2023-02-05T02:55:52.584Z,0
2023-02-05T02:56:52.597Z,0
2023-02-05T02:57:52.604Z,0
2023-02-05T02:58:52.569Z,0
2023-02-05T02:59:52.584Z,0
2023-02-05T03:00:52.608Z,0
2023-02-05T03:01:54.082Z,0
2023-02-05T03:02:52.583Z,0
2023-02-05T03:03:52.624Z,0
2023-02-05T03:04:52.594Z,0
2023-02-05T03:05:52.587Z,0
2023-02-05T03:06:52.595Z,0
2023-02-05T03:07:52.601Z,0
2023-02-05T03:08:52.585Z,0
2023-02-05T03:09:52.601Z,0
2023-02-05T03:10:52.584Z,0
2023-02-05T03:11:52.619Z,0
2023-02-05T03:12:52.585Z,0
2023-02-05T03:13:52.588Z,0
2023-02-05T03:14:52.596Z,0
2023-02-05T03:15:52.619Z,0
2023-02-05T03:16:52.599Z,0
2023-02-05T03:17:52.592Z,0
2023-02-05T03:18:52.597Z,0
2023-02-05T03:19:52.597Z,0
2023-02-05T03:20:52.580Z,0
2023-02-05T03:21:52.708Z,0
2023-02-05T03:22:52.584Z,0
2023-02-05T03:23:52.574Z,0
2023-02-05T03:24:52.577Z,0
2023-02-05T03:25:52.576Z,0
2023-02-05T03:26:52.580Z,0
2023-02-05T03:27:52.630Z,0
2023-02-05T03:28:52.581Z,0
2023-02-05T03:29:52.573Z,0
2023-02-05T03:30:52.619Z,0
2023-02-05T03:31:52.676Z,0
2023-02-05T03:32:52.577Z,0
2023-02-05T03:33:52.577Z,0
2023-02-05T03:34:52.569Z,0
2023-02-05T03:35:52.570Z,0
2023-02-05T03:36:52.595Z,0
2023-02-05T03:37:52.642Z,0
2023-02-05T03:38:52.571Z,0
2023-02-05T03:39:52.578Z,0
2023-02-05T03:40:52.591Z,0
2023-02-05T03:41:52.621Z,0
2023-02-05T03:42:52.588Z,0
2023-02-05T03:43:52.592Z,0
2023-02-05T03:44:52.584Z,0
2023-02-05T03:45:52.607Z,0
2023-02-05T03:46:52.604Z,0
2023-02-05T03:47:52.584Z,0
2023-02-05T03:48:52.579Z,0
2023-02-05T03:49:52.609Z,0
2023-02-05T03:50:52.593Z,0
2023-02-05T03:51:52.795Z,0
2023-02-05T03:52:52.615Z,0
2023-02-05T03:53:52.596Z,0
2023-02-05T03:54:52.590Z,0
2023-02-05T03:55:52.591Z,0
2023-02-05T03:56:52.601Z,0
2023-02-05T03:57:52.578Z,0
2023-02-05T03:58:52.582Z,0
2023-02-05T03:59:52.588Z,0
2023-02-05T04:00:52.604Z,0
2023-02-05T04:01:52.600Z,0
2023-02-05T04:02:52.596Z,0
2023-02-05T04:03:52.588Z,0
2023-02-05T04:04:52.591Z,0
2023-02-05T04:05:52.584Z,0
2023-02-05T04:06:52.586Z,0
2023-02-05T04:07:52.635Z,0
2023-02-05T04:08:52.582Z,0
2023-02-05T04:09:52.585Z,0
2023-02-05T04:10:52.580Z,0
2023-02-05T04:11:52.592Z,0
2023-02-05T04:12:52.580Z,0
2023-02-05T04:13:52.582Z,0
2023-02-05T04:14:52.585Z,0
2023-02-05T04:15:52.581Z,0
2023-02-05T04:16:52.593Z,0
2023-02-05T04:17:52.593Z,0
2023-02-05T04:18:52.583Z,0
2023-02-05T04:19:52.581Z,0
2023-02-05T04:20:52.581Z,0
2023-02-05T04:21:52.602Z,0
2023-02-05T04:22:52.594Z,0
2023-02-05T04:23:52.609Z,0
2023-02-05T04:24:52.576Z,0
2023-02-05T04:25:52.564Z,0
2023-02-05T04:26:52.599Z,0
2023-02-05T04:27:52.613Z,0
2023-02-05T04:28:52.570Z,0
2023-02-05T04:29:52.576Z,0
2023-02-05T04:30:52.669Z,0
2023-02-05T04:31:52.601Z,0
2023-02-05T04:32:52.573Z,0
2023-02-05T04:33:52.594Z,0
2023-02-05T04:34:52.568Z,0
2023-02-05T04:35:52.570Z,0
2023-02-05T04:36:52.598Z,0
2023-02-05T04:37:52.621Z,0
2023-02-05T04:38:52.581Z,0
2023-02-05T04:39:52.570Z,0
2023-02-05T04:40:52.575Z,0
2023-02-05T04:41:52.631Z,0
2023-02-05T04:42:52.578Z,0
2023-02-05T04:43:52.571Z,0
2023-02-05T04:44:52.566Z,0
2023-02-05T04:45:52.621Z,0
2023-02-05T04:46:52.590Z,0
2023-02-05T04:47:52.697Z,0
2023-02-05T04:48:52.583Z,0
2023-02-05T04:49:52.580Z,0
2023-02-05T04:50:52.571Z,0
2023-02-05T04:51:52.593Z,0
2023-02-05T04:52:52.589Z,0
2023-02-05T04:53:52.566Z,0
2023-02-05T04:54:52.573Z,0
2023-02-05T04:55:52.582Z,0
2023-02-05T04:56:52.589Z,0
2023-02-05T04:57:52.847Z,0
2023-02-05T04:58:52.586Z,0
2023-02-05T04:59:52.572Z,0
2023-02-05T05:00:52.578Z,0
2023-02-05T05:01:52.609Z,0
2023-02-05T05:02:52.585Z,0
2023-02-05T05:03:52.605Z,0
2023-02-05T05:04:52.605Z,0
2023-02-05T05:05:52.597Z,0
2023-02-05T05:06:52.610Z,0
2023-02-05T05:07:52.603Z,0
2023-02-05T05:08:52.599Z,0
2023-02-05T05:09:52.690Z,0
2023-02-05T05:10:52.581Z,0
2023-02-05T05:11:52.607Z,0
2023-02-05T05:12:52.587Z,0
2023-02-05T05:13:52.581Z,0
2023-02-05T05:14:52.590Z,0
2023-02-05T05:15:52.614Z,0
2023-02-05T05:16:52.602Z,0
2023-02-05T05:17:52.579Z,0
2023-02-05T05:18:52.582Z,0
2023-02-05T05:19:52.577Z,0
2023-02-05T05:20:52.568Z,0
2023-02-05T05:21:52.591Z,0
2023-02-05T05:22:52.594Z,0
2023-02-05T05:23:52.595Z,0
2023-02-05T05:24:52.574Z,0
2023-02-05T05:25:52.592Z,0
2023-02-05T05:26:52.602Z,0
2023-02-05T05:27:52.689Z,0
2023-02-05T05:28:52.590Z,0
2023-02-05T05:29:52.580Z,0
2023-02-05T05:30:52.584Z,0
2023-02-05T05:31:52.686Z,0
2023-02-05T05:32:52.584Z,0
2023-02-05T05:33:52.583Z,0
2023-02-05T05:34:52.591Z,0
2023-02-05T05:35:52.589Z,0
2023-02-05T05:36:52.603Z,0
2023-02-05T05:37:52.606Z,0
2023-02-05T05:38:52.591Z,0
2023-02-05T05:39:52.577Z,0
2023-02-05T05:40:52.578Z,0
2023-02-05T05:41:52.586Z,0
2023-02-05T05:42:52.574Z,0
2023-02-05T05:43:52.576Z,0
2023-02-05T05:44:52.605Z,0
2023-02-05T05:45:52.604Z,0
2023-02-05T05:46:52.615Z,0
2023-02-05T05:47:52.579Z,0
2023-02-05T05:48:52.586Z,0
2023-02-05T05:49:52.569Z,0
2023-02-05T05:50:52.599Z,0
2023-02-05T05:51:52.614Z,0
2023-02-05T05:52:52.601Z,0
2023-02-05T05:53:52.569Z,0
2023-02-05T05:54:52.583Z,0
2023-02-05T05:55:52.572Z,0
2023-02-05T05:56:52.585Z,0
2023-02-05T05:57:52.654Z,0
2023-02-05T05:58:52.689Z,0
2023-02-05T05:59:52.580Z,0
2023-02-05T06:00:52.713Z,0
2023-02-05T06:01:52.600Z,0
2023-02-05T06:02:52.668Z,0
2023-02-05T06:03:52.576Z,0
2023-02-05T06:04:52.600Z,0
2023-02-05T06:05:52.568Z,0
2023-02-05T06:06:52.574Z,0
2023-02-05T06:07:52.591Z,0
2023-02-05T06:08:52.570Z,0
2023-02-05T06:09:52.568Z,0
2023-02-05T06:10:52.578Z,0
2023-02-05T06:11:52.589Z,0
2023-02-05T06:12:52.584Z,0
2023-02-05T06:13:52.566Z,0
2023-02-05T06:14:52.577Z,0
2023-02-05T06:15:52.642Z,0.01
2023-02-05T06:16:52.666Z,0.01
2023-02-05T06:17:52.584Z,0.01
2023-02-05T06:18:52.581Z,0.01
2023-02-05T06:19:52.581Z,0.01
2023-02-05T06:20:52.567Z,0.02
2023-02-05T06:21:52.599Z,0.02
2023-02-05T06:22:52.710Z,0.02
2023-02-05T06:23:52.579Z,0.02
2023-02-05T06:24:52.580Z,0.03
2023-02-05T06:25:52.587Z,0.03
2023-02-05T06:26:52.601Z,0.03
2023-02-05T06:27:52.675Z,0.04
2023-02-05T06:28:52.581Z,0.04
2023-02-05T06:29:52.577Z,0.05
2023-02-05T06:30:52.632Z,0.05
2023-02-05T06:31:52.771Z,0.06
2023-02-05T06:32:52.579Z,0.06
2023-02-05T06:33:52.583Z,0.07
2023-02-05T06:34:52.584Z,0.07
2023-02-05T06:35:52.627Z,0.08
2023-02-05T06:36:52.595Z,0.08
2023-02-05T06:37:52.600Z,0.09
2023-02-05T06:38:52.586Z,0.1
2023-02-05T06:39:52.576Z,0.1
2023-02-05T06:40:52.581Z,0.11
2023-02-05T06:41:52.596Z,0.12
2023-02-05T06:42:52.592Z,0.12
2023-02-05T06:43:52.581Z,0.13
2023-02-05T06:44:52.578Z,0.13
2023-02-05T06:45:52.579Z,0.14
2023-02-05T06:46:52.600Z,0.14
2023-02-05T06:47:52.585Z,0.15
2023-02-05T06:48:52.583Z,0.16
2023-02-05T06:49:52.578Z,0.17
2023-02-05T06:50:52.590Z,0.18
2023-02-05T06:51:52.623Z,0.19
2023-02-05T06:52:52.598Z,0.19
2023-02-05T06:53:52.578Z,0.2
2023-02-05T06:54:52.566Z,0.21
2023-02-05T06:55:52.579Z,0.22
2023-02-05T06:56:52.589Z,0.23
2023-02-05T06:57:52.569Z,0.24
2023-02-05T06:58:52.566Z,0.24
2023-02-05T06:59:52.584Z,0.25
2023-02-05T07:00:52.596Z,0.27
2023-02-05T07:01:52.626Z,0.28
2023-02-05T07:02:52.671Z,0.29
2023-02-05T07:03:52.577Z,0.31
2023-02-05T07:04:52.574Z,0.33
2023-02-05T07:05:52.568Z,0.34
2023-02-05T07:06:52.594Z,0.37
2023-02-05T07:07:52.593Z,0.41
2023-02-05T07:08:52.574Z,0.47
2023-02-05T07:09:52.592Z,0.56
2023-02-05T07:10:52.568Z,0.66
2023-02-05T07:11:52.597Z,0.73
2023-02-05T07:12:52.636Z,0.81
2023-02-05T07:13:52.569Z,0.88
2023-02-05T07:14:52.572Z,0.84
2023-02-05T07:15:52.626Z,0.93
2023-02-05T07:16:52.596Z,0.96
2023-02-05T07:17:52.586Z,1
2023-02-05T07:18:52.624Z,1
2023-02-05T07:19:52.585Z,0.96
2023-02-05T07:20:52.574Z,0.88
2023-02-05T07:21:52.599Z,0.68
2023-02-05T07:22:52.610Z,0.5
2023-02-05T07:23:52.593Z,0.49
2023-02-05T07:24:52.591Z,0.51
2023-02-05T07:25:52.589Z,0.52
2023-02-05T07:26:52.610Z,0.53
2023-02-05T07:27:52.667Z,0.53
2023-02-05T07:28:52.590Z,0.53
2023-02-05T07:29:52.589Z,0.54
2023-02-05T07:30:52.608Z,0.54
2023-02-05T07:31:52.682Z,0.55
2023-02-05T07:32:52.601Z,0.57
2023-02-05T07:33:52.597Z,0.59
2023-02-05T07:34:52.601Z,0.62
2023-02-05T07:35:52.607Z,0.64
2023-02-05T07:36:52.601Z,0.62
2023-02-05T07:37:52.598Z,0.58
2023-02-05T07:38:52.583Z,0.54
2023-02-05T07:39:52.597Z,0.52
2023-02-05T07:40:52.585Z,0.5
2023-02-05T07:41:52.592Z,0.5
2023-02-05T07:42:52.597Z,0.51
2023-02-05T07:43:52.594Z,0.52
2023-02-05T07:44:52.591Z,0.53
2023-02-05T07:45:52.583Z,0.55
2023-02-05T07:46:52.625Z,0.58
2023-02-05T07:47:52.579Z,0.63
2023-02-05T07:48:52.574Z,0.65
2023-02-05T07:49:52.589Z,0.71
2023-02-05T07:50:52.581Z,0.76
2023-02-05T07:51:52.602Z,0.82
2023-02-05T07:52:52.611Z,0.88
2023-02-05T07:53:52.573Z,0.97
2023-02-05T07:54:52.582Z,1.12
2023-02-05T07:55:52.580Z,1.33
2023-02-05T07:56:52.590Z,1.61
2023-02-05T07:57:52.577Z,1.51
2023-02-05T07:58:52.622Z,1.35
2023-02-05T07:59:52.586Z,1.76
2023-02-05T08:00:52.586Z,1.71
2023-02-05T08:01:52.584Z,1.99
2023-02-05T08:02:52.568Z,2.18
2023-02-05T08:03:52.635Z,2.3
2023-02-05T08:04:52.571Z,2.89
2023-02-05T08:05:52.616Z,3.22
2023-02-05T08:06:52.588Z,2.93
2023-02-05T08:07:52.589Z,2.94
2023-02-05T08:08:52.588Z,3.04
2023-02-05T08:09:52.575Z,3.18
2023-02-05T08:10:52.573Z,3.31
2023-02-05T08:11:52.576Z,3.14
2023-02-05T08:12:52.563Z,2.86
2023-02-05T08:13:52.566Z,3.09
2023-02-05T08:14:52.589Z,3.27
2023-02-05T08:15:52.582Z,3.39
2023-02-05T08:16:52.593Z,4.09
2023-02-05T08:17:52.578Z,4.06
2023-02-05T08:18:52.577Z,4.06
2023-02-05T08:19:52.574Z,2.91
2023-02-05T08:20:52.571Z,3.24
2023-02-05T08:21:52.591Z,3.48
2023-02-05T08:22:52.622Z,3.91
2023-02-05T08:23:52.573Z,4.24
2023-02-05T08:24:52.576Z,3.75
2023-02-05T08:25:52.567Z,3.26
2023-02-05T08:26:52.658Z,3.13
2023-02-05T08:27:52.592Z,3.49
2023-02-05T08:28:52.580Z,3.99
2023-02-05T08:29:52.602Z,3.71
2023-02-05T08:30:52.617Z,3.27
2023-02-05T08:31:52.629Z,3.94
2023-02-05T08:32:52.584Z,4.74
2023-02-05T08:33:52.583Z,4.68
2023-02-05T08:34:52.588Z,4.66
2023-02-05T08:35:52.588Z,4.21
2023-02-05T08:36:52.590Z,3.5
2023-02-05T08:37:52.600Z,3.43
2023-02-05T08:38:52.580Z,4.39
2023-02-05T08:39:52.590Z,5.15
2023-02-05T08:40:52.579Z,4.94
2023-02-05T08:41:52.591Z,4.83
2023-02-05T08:42:52.616Z,4.32
2023-02-05T08:43:52.588Z,4.06
2023-02-05T08:44:52.574Z,4.78
2023-02-05T08:45:52.604Z,5.5
2023-02-05T08:46:52.595Z,4.75
2023-02-05T08:47:52.760Z,4.12
2023-02-05T08:48:52.593Z,4.43
2023-02-05T08:49:52.583Z,5.2
2023-02-05T08:50:52.583Z,4.9
2023-02-05T08:51:52.606Z,4.62
2023-02-05T08:52:52.593Z,5.17
2023-02-05T08:53:52.579Z,5.69
2023-02-05T08:54:52.580Z,5.7
2023-02-05T08:55:52.586Z,5.04
2023-02-05T08:56:52.598Z,4.66
2023-02-05T08:57:52.586Z,4.6
2023-02-05T08:58:52.596Z,4.78
2023-02-05T08:59:52.583Z,4.88
2023-02-05T09:00:52.608Z,5.08
2023-02-05T09:01:52.588Z,5.26
2023-02-05T09:02:52.582Z,4.91
2023-02-05T09:03:52.580Z,5.2
2023-02-05T09:05:01.871Z,5.42
2023-02-05T09:05:52.580Z,4.5
2023-02-05T09:06:52.602Z,3.48
2023-02-05T09:07:52.595Z,2.66
2023-02-05T09:08:52.583Z,2.95
2023-02-05T09:09:52.578Z,3.75
2023-02-05T09:10:52.585Z,4.37
2023-02-05T09:11:52.594Z,5.11
2023-02-05T09:12:52.581Z,4.1
2023-02-05T09:13:52.584Z,3.92
2023-02-05T09:14:52.577Z,4.04
2023-02-05T09:15:52.584Z,4.56
2023-02-05T09:16:52.629Z,5.08
2023-02-05T09:17:52.570Z,5.27
2023-02-05T09:18:52.568Z,5.27
2023-02-05T09:19:52.612Z,5.3
2023-02-05T09:20:52.570Z,5.4
2023-02-05T09:21:54.180Z,5.22
2023-02-05T09:22:52.687Z,5.36
2023-02-05T09:23:52.568Z,5.63
2023-02-05T09:24:52.574Z,5.38
2023-02-05T09:25:52.590Z,5.54
2023-02-05T09:26:52.585Z,5.42
2023-02-05T09:27:52.668Z,5.59
2023-02-05T09:28:52.654Z,5.47
2023-02-05T09:29:52.572Z,5.82
2023-02-05T09:30:52.623Z,6.42
2023-02-05T09:31:52.633Z,5.35
2023-02-05T09:32:52.574Z,4.71
2023-02-05T09:33:52.582Z,3.96
2023-02-05T09:34:52.679Z,4.19
2023-02-05T09:35:52.589Z,3.91
2023-02-05T09:36:52.603Z,3.96
2023-02-05T09:37:52.581Z,4.14
2023-02-05T09:38:56.893Z,4.87
2023-02-05T09:40:19.698Z,4.81
2023-02-05T09:40:52.574Z,4.98
2023-02-05T09:41:52.585Z,4.55
2023-02-05T09:42:52.653Z,3.45
2023-02-05T09:43:52.596Z,3.64
2023-02-05T09:44:52.590Z,3.92
2023-02-05T09:45:52.633Z,3.98
2023-02-05T09:46:52.607Z,4.22
2023-02-05T09:47:52.594Z,4.26
2023-02-05T09:48:52.587Z,4.69
2023-02-05T09:49:52.590Z,4.7
2023-02-05T09:50:52.590Z,5.6
2023-02-05T09:51:52.599Z,5.6
2023-02-05T09:52:52.601Z,5.84
2023-02-05T09:53:52.588Z,4.93
2023-02-05T09:54:52.599Z,4.64
2023-02-05T09:55:52.583Z,4.25
2023-02-05T09:56:52.596Z,3.67
2023-02-05T09:57:52.584Z,3.86
2023-02-05T09:58:52.590Z,3.92
2023-02-05T09:59:52.587Z,3.67
2023-02-05T10:00:52.584Z,3.24
2023-02-05T10:01:52.603Z,2.86
2023-02-05T10:02:52.578Z,2.8
2023-02-05T10:03:52.573Z,2.93
2023-02-05T10:04:52.579Z,3.65
2023-02-05T10:05:52.588Z,4.73
2023-02-05T10:06:52.600Z,4.51
2023-02-05T10:07:52.594Z,4.95
2023-02-05T10:08:52.616Z,4.28
2023-02-05T10:09:52.580Z,4.48
2023-02-05T10:10:52.585Z,4.68
2023-02-05T10:11:52.595Z,4.42
2023-02-05T10:12:52.585Z,4.82
2023-02-05T10:13:52.587Z,5.26
2023-02-05T10:14:52.592Z,5.24
2023-02-05T10:15:52.649Z,4.77
2023-02-05T10:16:52.590Z,4.62
2023-02-05T10:17:52.588Z,4.88
2023-02-05T10:18:52.590Z,4.88
2023-02-05T10:19:52.585Z,4.51
2023-02-05T10:20:52.576Z,4.64
2023-02-05T10:21:52.599Z,5.51
2023-02-05T10:22:52.612Z,5.45
2023-02-05T10:23:52.576Z,5.46
2023-02-05T10:24:52.583Z,5.06
2023-02-05T10:25:52.693Z,4.93
2023-02-05T10:26:52.597Z,5.26
2023-02-05T10:27:52.614Z,5.26
2023-02-05T10:28:52.568Z,5.34
2023-02-05T10:29:52.566Z,5.27
2023-02-05T10:30:52.656Z,4.83
2023-02-05T10:31:52.650Z,4.7
2023-02-05T10:32:52.566Z,5.06
2023-02-05T10:33:52.572Z,4.88
2023-02-05T10:34:52.606Z,5.34
2023-02-05T10:35:52.570Z,5.4
2023-02-05T10:36:52.594Z,4.89
2023-02-05T10:37:52.585Z,5.03
2023-02-05T10:38:52.584Z,5.37
2023-02-05T10:39:52.566Z,5.93
2023-02-05T10:40:52.597Z,5.3
2023-02-05T10:41:52.598Z,5.71
2023-02-05T10:42:52.565Z,5.37
2023-02-05T10:43:52.574Z,4.96
2023-02-05T10:44:52.570Z,5.45
2023-02-05T10:45:52.570Z,5.53
2023-02-05T10:46:52.576Z,5.6
2023-02-05T10:47:52.592Z,5.7
2023-02-05T10:48:52.577Z,5.82
2023-02-05T10:49:53.672Z,6.08
2023-02-05T10:50:52.576Z,6.84
2023-02-05T10:51:52.595Z,8.29
2023-02-05T10:52:52.605Z,9.15
2023-02-05T10:53:52.575Z,8.92
2023-02-05T10:54:52.581Z,8.95
2023-02-05T10:55:52.587Z,6.23
2023-02-05T10:56:52.602Z,6.61
2023-02-05T10:57:52.596Z,6.44
2023-02-05T10:58:52.591Z,6.86
2023-02-05T10:59:52.579Z,8.31
2023-02-05T11:00:52.581Z,8.4
2023-02-05T11:01:52.630Z,8.57
2023-02-05T11:02:52.673Z,9.53
2023-02-05T11:03:52.587Z,9.47
2023-02-05T11:04:52.577Z,9.64
2023-02-05T11:05:52.584Z,7.85
2023-02-05T11:06:52.596Z,7
2023-02-05T11:07:52.598Z,6.57
2023-02-05T11:08:52.589Z,6.2
2023-02-05T11:09:52.582Z,6.34
2023-02-05T11:10:52.623Z,7.72
2023-02-05T11:11:52.593Z,8.44
2023-02-05T11:12:52.594Z,8.95
2023-02-05T11:13:52.578Z,9.15
2023-02-05T11:14:52.581Z,8.4
2023-02-05T11:15:52.619Z,8.01
2023-02-05T11:16:52.595Z,7.16
2023-02-05T11:17:52.578Z,6.57
2023-02-05T11:18:52.591Z,6.57
2023-02-05T11:19:52.586Z,5.69
2023-02-05T11:20:52.575Z,6.05
2023-02-05T11:21:52.591Z,5.52
2023-02-05T11:22:52.592Z,5.34
2023-02-05T11:23:52.588Z,4.95
2023-02-05T11:24:52.581Z,4.68
2023-02-05T11:25:52.594Z,4.77
2023-02-05T11:26:52.594Z,4.73
2023-02-05T11:27:52.673Z,4.45
2023-02-05T11:28:52.573Z,4.35
2023-02-05T11:29:52.581Z,4.31
2023-02-05T11:30:53.126Z,4.65
2023-02-05T11:31:52.645Z,5.6
2023-02-05T11:32:52.588Z,6.67
2023-02-05T11:33:52.591Z,6.64
2023-02-05T11:34:52.592Z,6.17
2023-02-05T11:35:52.575Z,6.3
2023-02-05T11:36:52.594Z,6.07
2023-02-05T11:37:52.588Z,5.16
2023-02-05T11:38:52.579Z,4.88
2023-02-05T11:39:52.574Z,4.45
2023-02-05T11:40:52.571Z,4.45
2023-02-05T11:41:52.614Z,4.48
2023-02-05T11:42:52.571Z,4.69
2023-02-05T11:43:52.573Z,4.59
2023-02-05T11:44:52.582Z,4.53
2023-02-05T11:45:52.572Z,4.67
2023-02-05T11:46:52.598Z,4.55
2023-02-05T11:47:52.574Z,4.49
2023-02-05T11:48:52.564Z,4.34
2023-02-05T11:49:52.569Z,4.29
2023-02-05T11:50:52.569Z,4.31
2023-02-05T11:51:52.607Z,4.76
2023-02-05T11:52:52.594Z,5.43
2023-02-05T11:53:52.567Z,6.49
2023-02-05T11:54:52.577Z,6.88
2023-02-05T11:55:52.573Z,6.44
2023-02-05T11:56:52.810Z,5.43
2023-02-05T11:57:52.574Z,5.11
2023-02-05T11:58:52.654Z,5.21
2023-02-05T11:59:52.573Z,5.18
2023-02-05T12:00:52.574Z,4.44
2023-02-05T12:01:52.627Z,3.94
2023-02-05T12:02:52.607Z,3.94
2023-02-05T12:03:52.578Z,4.93
2023-02-05T12:04:52.576Z,4.61
2023-02-05T12:05:52.591Z,3.94
2023-02-05T12:06:52.590Z,4.29
2023-02-05T12:07:52.593Z,4.06
2023-02-05T12:08:52.584Z,3.63
2023-02-05T12:09:52.587Z,3.22
2023-02-05T12:10:52.593Z,3.31
2023-02-05T12:11:52.594Z,4.03
2023-02-05T12:12:52.589Z,4.42
2023-02-05T12:13:52.586Z,4.66
2023-02-05T12:14:52.587Z,4.01
2023-02-05T12:15:52.636Z,4
2023-02-05T12:16:52.624Z,4.11
2023-02-05T12:17:52.592Z,3.54
2023-02-05T12:18:52.584Z,3.54
2023-02-05T12:19:52.591Z,3.38
2023-02-05T12:20:52.592Z,3.68
2023-02-05T12:21:52.607Z,4.06
2023-02-05T12:22:52.601Z,3.96
2023-02-05T12:23:52.588Z,3.65
2023-02-05T12:24:52.583Z,3.55
2023-02-05T12:25:52.594Z,3.31
2023-02-05T12:26:52.605Z,3.27
2023-02-05T12:27:52.677Z,3.19
2023-02-05T12:28:52.584Z,3.02
2023-02-05T12:29:52.592Z,2.93
2023-02-05T12:30:52.630Z,2.83
2023-02-05T12:31:52.664Z,3
2023-02-05T12:32:52.579Z,3.08
2023-02-05T12:33:52.578Z,2.64
2023-02-05T12:34:52.596Z,2.58
2023-02-05T12:35:52.587Z,2.42
2023-02-05T12:36:52.606Z,2.32
2023-02-05T12:37:52.607Z,2.19
2023-02-05T12:38:52.585Z,2.11
2023-02-05T12:39:52.582Z,2.05
2023-02-05T12:40:52.587Z,2.05
2023-02-05T12:41:52.595Z,2.02
2023-02-05T12:42:52.581Z,1.99
2023-02-05T12:43:52.582Z,1.99
2023-02-05T12:44:52.581Z,1.97
2023-02-05T12:45:52.609Z,1.98
2023-02-05T12:46:52.592Z,1.93
2023-02-05T12:47:52.577Z,1.91
2023-02-05T12:48:52.575Z,1.91
2023-02-05T12:49:52.570Z,1.92
2023-02-05T12:50:52.574Z,1.94
2023-02-05T12:51:52.595Z,1.96
2023-02-05T12:52:52.587Z,1.95
2023-02-05T12:53:52.570Z,1.95
2023-02-05T12:54:52.564Z,1.99
2023-02-05T12:55:52.565Z,2.04
2023-02-05T12:56:52.593Z,2.09
2023-02-05T12:57:52.565Z,2.14
2023-02-05T12:58:52.568Z,2.14
2023-02-05T12:59:52.570Z,2.1
2023-02-05T13:00:52.651Z,2.08
2023-02-05T13:01:52.584Z,2.02
2023-02-05T13:02:52.578Z,1.97
2023-02-05T13:03:52.619Z,1.95
2023-02-05T13:04:52.572Z,1.94
2023-02-05T13:05:52.580Z,1.96
2023-02-05T13:06:52.596Z,1.97
2023-02-05T13:07:52.591Z,2.02
2023-02-05T13:08:52.569Z,2.05
2023-02-05T13:09:52.572Z,2.06
2023-02-05T13:10:52.570Z,2.04
2023-02-05T13:11:52.589Z,2.04
2023-02-05T13:12:52.569Z,2.02
2023-02-05T13:13:52.568Z,2.04
2023-02-05T13:14:52.572Z,2.03
2023-02-05T13:15:52.604Z,2.08
2023-02-05T13:16:52.600Z,2.17
2023-02-05T13:17:52.580Z,2.36
2023-02-05T13:18:52.589Z,2.35
2023-02-05T13:19:52.565Z,2.33
2023-02-05T13:20:52.573Z,2.31
2023-02-05T13:21:52.595Z,2.28
2023-02-05T13:22:52.610Z,2.19
2023-02-05T13:23:52.588Z,2.15
2023-02-05T13:24:52.578Z,2.08
2023-02-05T13:25:52.585Z,2.05
2023-02-05T13:26:52.593Z,1.98
2023-02-05T13:27:52.631Z,1.98
2023-02-05T13:28:52.590Z,1.99
2023-02-05T13:29:52.591Z,1.99
2023-02-05T13:30:52.709Z,2.07
2023-02-05T13:31:52.597Z,2.12
2023-02-05T13:32:52.590Z,2.11
2023-02-05T13:33:52.678Z,2.08
2023-02-05T13:34:52.582Z,2.02
2023-02-05T13:35:52.586Z,2.03
2023-02-05T13:36:52.596Z,2.03
2023-02-05T13:37:52.598Z,1.96
2023-02-05T13:38:52.593Z,1.96
2023-02-05T13:39:52.587Z,1.99
2023-02-05T13:40:52.578Z,2.13
2023-02-05T13:41:52.593Z,2.11
2023-02-05T13:42:52.582Z,2.1
2023-02-05T13:43:52.590Z,1.99
2023-02-05T13:44:52.582Z,2.01
2023-02-05T13:45:52.637Z,2.03
2023-02-05T13:46:52.610Z,2.07
2023-02-05T13:47:52.579Z,2.1
2023-02-05T13:48:52.586Z,2.07
2023-02-05T13:49:52.586Z,2.08
2023-02-05T13:50:52.578Z,2.08
2023-02-05T13:51:52.590Z,2.06
2023-02-05T13:52:52.590Z,2.02
2023-02-05T13:53:52.585Z,1.96
2023-02-05T13:54:52.595Z,1.94
2023-02-05T13:55:52.578Z,1.98
2023-02-05T13:56:52.593Z,1.99
2023-02-05T13:57:52.584Z,1.88